createdAt,value
2023-03-12T00:00:54.626Z,99963.31
2023-03-12T00:03:22.139Z,99977.75
2023-03-12T00:05:49.327Z,99974.06
2023-03-12T00:08:16.483Z,99974.81
2023-03-12T00:10:43.974Z,99979.88
2023-03-12T00:13:11.144Z,99975.28
2023-03-12T00:15:39.395Z,99985.78
2023-03-12T00:18:07.049Z,99984.00
2023-03-12T00:20:34.229Z,99996.81
2023-03-12T00:23:01.446Z,99987.88
2023-03-12T00:25:28.973Z,99996.81
2023-03-12T00:27:56.243Z,100011.91
2023-03-12T00:30:23.362Z,100002.50
2023-03-12T00:32:50.817Z,100001.03
2023-03-12T00:35:18.094Z,100011.88
2023-03-12T00:37:45.179Z,100001.22
2023-03-12T00:40:13.752Z,100007.81
2023-03-12T00:42:40.903Z,100008.91
2023-03-12T00:45:08.393Z,100016.78
2023-03-12T00:47:35.848Z,100016.87
2023-03-12T00:50:03.446Z,100016.78
2023-03-12T00:52:30.587Z,100017.88
2023-03-12T00:54:58.934Z,100028.97
2023-03-12T00:57:26.321Z,100032.25
2023-03-12T00:59:53.533Z,100031.28
2023-03-12T01:02:21.393Z,100038.88
2023-03-12T01:04:48.552Z,100037.13
2023-03-12T01:07:15.588Z,100041.22
2023-03-12T01:09:43.021Z,100034.53
2023-03-12T01:12:10.284Z,100032.19
2023-03-12T01:14:37.419Z,100037.84
2023-03-12T01:17:04.813Z,100032.47
2023-03-12T01:19:31.950Z,100038.91
2023-03-12T01:21:59.142Z,100037.31
2023-03-12T01:24:26.582Z,100041.50
2023-03-12T01:26:53.671Z,100048.25
2023-03-12T01:29:20.875Z,100048.31
2023-03-12T01:31:48.496Z,100048.31
2023-03-12T01:34:15.654Z,100055.47
2023-03-12T01:36:42.923Z,100055.28
2023-03-12T01:39:10.457Z,100046.81
2023-03-12T01:41:37.753Z,100048.31
2023-03-12T01:44:05.075Z,100050.87
2023-03-12T01:46:43.301Z,100051.03
2023-03-12T01:49:30.023Z,100049.09
2023-03-12T01:51:57.481Z,100052.31
2023-03-12T01:54:35.031Z,100059.78
2023-03-12T01:57:04.434Z,100059.34
2023-03-12T01:59:37.104Z,100051.78
2023-03-12T02:02:05.668Z,100055.31
2023-03-12T02:04:33.398Z,100055.56
2023-03-12T02:07:14.651Z,100068.31
2023-03-12T02:09:44.024Z,100071.94
2023-03-12T02:12:11.245Z,100080.59
2023-03-12T02:14:38.757Z,100085.56
2023-03-12T02:17:06.840Z,100082.00
2023-03-12T02:19:52.404Z,100090.38
2023-03-12T02:22:21.110Z,100098.00
2023-03-12T02:24:54.335Z,100098.84
2023-03-12T02:27:22.538Z,100108.88
2023-03-12T02:29:50.054Z,100109.38
2023-03-12T02:32:23.597Z,100118.69
2023-03-12T02:34:51.073Z,100108.22
2023-03-12T02:37:19.164Z,100114.22
2023-03-12T02:40:14.389Z,100115.00
2023-03-12T02:42:41.690Z,100119.34
2023-03-12T02:45:09.573Z,100114.84
2023-03-12T02:47:37.264Z,100127.06
2023-03-12T02:50:05.477Z,100118.53
2023-03-12T02:52:35.628Z,100133.28
2023-03-12T02:55:02.996Z,100138.16
2023-03-12T02:57:30.447Z,100144.50
2023-03-12T02:59:57.622Z,100139.63
2023-03-12T03:02:24.785Z,100150.72
2023-03-12T03:04:52.306Z,100152.25
2023-03-12T03:07:19.533Z,100157.28
2023-03-12T03:09:46.710Z,100168.50
2023-03-12T03:12:14.087Z,100168.44
2023-03-12T03:14:41.906Z,100178.66
2023-03-12T03:17:09.064Z,100182.97
2023-03-12T03:19:36.427Z,100185.78
2023-03-12T03:22:04.180Z,100188.25
2023-03-12T03:24:31.444Z,100181.56
2023-03-12T03:26:58.844Z,100199.81
2023-03-12T03:29:25.923Z,100193.16
2023-03-12T03:31:53.614Z,100188.12
2023-03-12T03:34:21.232Z,100199.16
2023-03-12T03:36:48.321Z,100210.25
2023-03-12T03:39:15.641Z,100200.16
2023-03-12T03:41:43.153Z,100207.22
2023-03-12T03:44:10.448Z,100211.53
2023-03-12T03:46:37.793Z,100215.50
2023-03-12T03:49:06.348Z,100216.34
2023-03-12T03:51:33.555Z,100223.31
2023-03-12T03:54:01.180Z,100214.00
2023-03-12T03:56:29.012Z,100221.97
2023-03-12T03:58:58.204Z,100221.94
2023-03-12T04:01:26.429Z,100223.19
2023-03-12T04:03:55.523Z,100216.66
2023-03-12T04:06:22.725Z,100212.06
2023-03-12T04:08:49.878Z,100213.09
2023-03-12T04:11:20.674Z,100214.31
2023-03-12T04:13:48.816Z,100220.13
2023-03-12T04:16:17.493Z,100231.28
2023-03-12T04:18:45.191Z,100226.28
2023-03-12T04:21:13.953Z,100235.03
2023-03-12T04:23:41.502Z,100232.75
2023-03-12T04:26:09.562Z,100242.06
2023-03-12T04:28:37.219Z,100243.66
2023-03-12T04:31:08.804Z,100248.81
2023-03-12T04:33:38.239Z,100254.94
2023-03-12T04:36:06.514Z,100261.09
2023-03-12T04:38:34.416Z,100267.03
2023-03-12T04:41:08.209Z,100280.53
2023-03-12T04:43:36.126Z,100287.31
2023-03-12T04:46:03.978Z,100289.97
2023-03-12T04:48:31.150Z,100288.19
2023-03-12T04:50:58.417Z,100292.38
2023-03-12T04:53:26.056Z,100287.47
2023-03-12T04:55:53.604Z,100284.03
2023-03-12T04:58:21.370Z,100304.28
2023-03-12T05:00:50.375Z,100303.41
2023-03-12T05:03:18.368Z,100306.00
2023-03-12T05:05:45.799Z,100304.44
2023-03-12T05:08:13.645Z,100308.72
2023-03-12T05:10:40.913Z,100312.09
2023-03-12T05:13:19.410Z,100318.78
2023-03-12T05:15:47.684Z,100317.16
2023-03-12T05:18:15.298Z,100318.87
2023-03-12T05:20:42.501Z,100319.72
2023-03-12T05:23:10.322Z,100324.84
2023-03-12T05:25:41.369Z,100330.97
2023-03-12T05:28:08.828Z,100330.78
2023-03-12T05:30:36.792Z,100339.41
2023-03-12T05:33:04.091Z,100349.56
2023-03-12T05:35:31.835Z,100345.31
2023-03-12T05:37:59.356Z,100350.44
2023-03-12T05:40:26.474Z,100367.38
2023-03-12T05:42:53.796Z,100356.06
2023-03-12T05:45:21.596Z,100362.00
2023-03-12T05:47:49.397Z,100354.38
2023-03-12T05:52:44.802Z,100365.19
2023-03-12T05:55:12.374Z,100369.44
2023-03-12T05:57:39.563Z,100372.84
2023-03-12T06:00:08.022Z,100380.44
2023-03-12T06:02:40.424Z,100386.50
2023-03-12T06:05:10.611Z,100391.62
2023-03-12T06:07:38.014Z,100406.87
2023-03-12T06:10:05.656Z,100405.75
2023-03-12T06:12:33.284Z,100407.31
2023-03-12T06:15:00.985Z,100404.72
2023-03-12T06:17:29.929Z,100418.56
2023-03-12T06:19:57.860Z,100424.28
2023-03-12T06:22:25.490Z,100427.63
2023-03-12T06:24:52.632Z,100431.72
2023-03-12T06:27:20.130Z,100438.62
2023-03-12T06:29:47.257Z,100435.25
2023-03-12T06:32:18.485Z,100446.13
2023-03-12T06:34:45.993Z,100459.50
2023-03-12T06:37:13.101Z,100452.50
2023-03-12T06:39:40.274Z,100456.72
2023-03-12T06:42:07.950Z,100463.22
2023-03-12T06:44:35.062Z,100464.91
2023-03-12T06:47:02.126Z,100467.75
2023-03-12T06:49:32.249Z,100473.22
2023-03-12T06:51:59.429Z,100484.50
2023-03-12T06:54:26.895Z,100478.31
2023-03-12T06:56:54.318Z,100482.13
2023-03-12T06:59:22.077Z,100486.19
2023-03-12T07:01:49.404Z,100486.38
2023-03-12T07:04:16.900Z,100487.66
2023-03-12T07:06:44.154Z,100489.69
2023-03-12T07:09:11.236Z,100497.13
2023-03-12T07:11:38.613Z,100500.88
2023-03-12T07:14:05.737Z,100497.87
2023-03-12T07:16:32.895Z,100501.91
2023-03-12T07:19:00.659Z,100508.66
2023-03-12T07:21:28.883Z,100506.88
2023-03-12T07:23:55.916Z,100505.28
2023-03-12T07:26:23.660Z,100508.31
2023-03-12T07:28:50.727Z,100501.44
2023-03-12T07:31:17.832Z,100493.12
2023-03-12T07:33:45.397Z,100507.16
2023-03-12T07:36:12.730Z,100504.59
2023-03-12T07:38:39.922Z,100523.16
2023-03-12T07:41:07.309Z,100510.91
2023-03-12T07:43:34.408Z,100515.13
2023-03-12T07:46:01.726Z,100517.53
2023-03-12T07:48:29.400Z,100517.81
2023-03-12T07:50:56.531Z,100523.44
2023-03-12T07:53:23.605Z,100518.25
2023-03-12T07:55:51.212Z,100521.28
2023-03-12T07:58:18.487Z,100516.78
2023-03-12T08:00:45.711Z,100519.28
2023-03-12T08:03:13.771Z,100516.13
2023-03-12T08:05:41.653Z,100522.16
2023-03-12T08:08:09.278Z,100526.97
2023-03-12T08:10:37.183Z,100519.72
2023-03-12T08:13:04.488Z,100520.91
2023-03-12T08:15:31.754Z,100522.25
2023-03-12T08:17:59.690Z,100527.38
2023-03-12T08:20:26.924Z,100533.41
2023-03-12T08:22:54.112Z,100528.13
2023-03-12T08:25:21.690Z,100525.37
2023-03-12T08:27:48.861Z,100530.75
2023-03-12T08:30:19.155Z,100531.41
2023-03-12T08:32:46.759Z,100528.94
2023-03-12T08:35:13.877Z,100528.22
2023-03-12T08:37:41.574Z,100528.09
2023-03-12T08:40:13.258Z,100543.91
2023-03-12T08:42:41.982Z,100522.94
2023-03-12T08:45:11.171Z,100530.88
2023-03-12T08:47:41.535Z,100521.22
2023-03-12T08:50:11.289Z,100530.28
2023-03-12T08:52:38.890Z,100529.75
2023-03-12T08:55:06.517Z,100544.38
2023-03-12T08:57:33.711Z,100528.75
2023-03-12T09:00:01.279Z,100532.44
2023-03-12T09:02:28.690Z,100533.16
2023-03-12T09:04:55.805Z,100525.69
2023-03-12T09:07:23.501Z,100531.50
2023-03-12T09:09:50.714Z,100537.16
2023-03-12T09:12:18.379Z,100538.25
2023-03-12T09:17:32.890Z,100533.91
2023-03-12T09:20:00.831Z,100531.97
2023-03-12T09:22:30.292Z,100530.97
2023-03-12T09:24:57.395Z,100531.63
2023-03-12T09:27:24.881Z,100520.88
2023-03-12T09:30:00.127Z,100537.66
2023-03-12T09:32:28.928Z,100537.81
2023-03-12T09:34:56.110Z,100536.22
2023-03-12T09:37:24.334Z,100544.28
2023-03-12T09:39:52.545Z,100524.56
2023-03-12T09:42:25.711Z,100533.25
2023-03-12T09:44:55.076Z,100527.38
2023-03-12T09:47:32.000Z,100534.75
2023-03-12T09:50:02.050Z,100528.97
2023-03-12T09:52:50.617Z,100519.47
2023-03-12T09:55:20.440Z,100535.09
2023-03-12T09:57:51.278Z,100529.09
2023-03-12T10:00:21.953Z,100524.78
2023-03-12T10:03:23.707Z,100532.53
2023-03-12T10:06:12.155Z,100524.53
2023-03-12T10:09:01.257Z,100524.31
2023-03-12T10:11:33.015Z,100517.44
2023-03-12T10:14:23.732Z,100521.59
2023-03-12T10:17:03.338Z,100522.63
2023-03-12T10:19:52.222Z,100520.50
2023-03-12T10:22:37.208Z,100522.38
2023-03-12T10:25:07.583Z,100529.44
2023-03-12T10:27:37.169Z,100534.31
2023-03-12T10:30:24.362Z,100530.88
2023-03-12T10:32:58.546Z,100526.13
2023-03-12T10:35:26.918Z,100525.56
2023-03-12T10:37:54.300Z,100528.87
2023-03-12T10:40:27.996Z,100551.75
2023-03-12T10:42:55.667Z,100544.56
2023-03-12T10:45:30.808Z,100540.22
2023-03-12T10:48:08.679Z,100555.19
2023-03-12T10:50:40.555Z,100541.50
2023-03-12T10:53:24.636Z,100542.22
2023-03-12T10:55:58.749Z,100538.31
2023-03-12T10:58:26.342Z,100536.19
2023-03-12T11:00:58.797Z,100544.38
2023-03-12T11:03:26.309Z,100545.53
2023-03-12T11:05:55.694Z,100543.16
2023-03-12T11:08:37.106Z,100545.69
2023-03-12T11:11:05.564Z,100538.59
2023-03-12T11:13:40.816Z,100540.41
2023-03-12T11:16:17.274Z,100545.69
2023-03-12T11:18:59.947Z,100540.12
2023-03-12T11:21:28.624Z,100530.78
2023-03-12T11:23:58.761Z,100538.66
2023-03-12T11:26:50.091Z,100537.81
2023-03-12T11:29:26.672Z,100538.41
2023-03-12T11:32:17.379Z,100535.81
2023-03-12T11:34:49.381Z,100540.53
2023-03-12T11:37:53.721Z,100537.12
2023-03-12T11:40:33.320Z,100531.09
2023-03-12T11:43:24.078Z,100528.31
2023-03-12T11:46:07.891Z,100525.88
2023-03-12T11:48:46.689Z,100524.09
2023-03-12T11:51:37.857Z,100529.44
2023-03-12T11:54:14.062Z,100524.81
2023-03-12T11:56:52.032Z,100517.63
2023-03-12T11:59:40.137Z,100514.97
2023-03-12T12:02:39.355Z,100522.41
2023-03-12T12:05:22.626Z,100506.06
2023-03-12T12:08:11.734Z,100500.69
2023-03-12T12:11:13.209Z,100501.53
2023-03-12T12:14:19.047Z,100501.69
2023-03-12T12:16:56.050Z,100492.09
2023-03-12T12:19:29.876Z,100499.09
2023-03-12T12:22:03.284Z,100494.87
2023-03-12T12:24:55.102Z,100493.78
2023-03-12T12:27:26.542Z,100489.84
2023-03-12T12:30:22.282Z,100489.59
2023-03-12T12:33:09.330Z,100488.91
2023-03-12T12:35:40.905Z,100483.53
2023-03-12T12:38:30.276Z,100486.72
2023-03-12T12:41:08.319Z,100483.72
2023-03-12T12:43:39.732Z,100490.56
2023-03-12T12:46:29.114Z,100489.03
2023-03-12T12:49:00.943Z,100495.84
2023-03-12T12:51:33.935Z,100501.22
2023-03-12T12:54:20.190Z,100494.22
2023-03-12T12:56:59.293Z,100495.72
2023-03-12T12:59:50.565Z,100484.28
2023-03-12T13:02:20.936Z,100489.34
2023-03-12T13:04:48.964Z,100487.06
2023-03-12T13:07:16.051Z,100486.28
2023-03-12T13:09:46.007Z,100483.94
2023-03-12T13:12:22.326Z,100491.63
2023-03-12T13:14:50.718Z,100492.31
2023-03-12T13:17:56.186Z,100483.69
2023-03-12T13:20:47.259Z,100485.81
2023-03-12T13:23:26.758Z,100486.75
2023-03-12T13:26:20.794Z,100486.22
2023-03-12T13:29:05.991Z,100481.37
2023-03-12T13:31:39.029Z,100485.13
2023-03-12T13:34:06.488Z,100495.59
2023-03-12T13:36:36.653Z,100489.56
2023-03-12T13:39:06.516Z,100498.69
2023-03-12T13:41:40.716Z,100493.16
2023-03-12T13:44:22.978Z,100507.91
2023-03-12T13:47:02.521Z,100499.59
2023-03-12T13:49:41.728Z,100502.91
2023-03-12T13:52:25.506Z,100500.41
2023-03-12T13:55:14.668Z,100493.09
2023-03-12T13:57:47.940Z,100497.28
2023-03-12T14:00:28.188Z,100490.03
2023-03-12T14:03:00.661Z,100496.75
2023-03-12T14:05:29.091Z,100494.16
2023-03-12T14:08:02.469Z,100489.88
2023-03-12T14:10:47.989Z,100499.38
2023-03-12T14:13:28.827Z,100500.41
2023-03-12T14:16:32.225Z,100501.53
2023-03-12T14:18:59.931Z,100506.06
2023-03-12T14:21:33.497Z,100496.31
2023-03-12T14:24:01.871Z,100500.88
2023-03-12T14:26:33.206Z,100506.06
2023-03-12T14:29:04.615Z,100506.97
2023-03-12T14:31:32.268Z,100517.88
2023-03-12T14:34:02.043Z,100504.84
2023-03-12T14:36:38.227Z,100507.56
2023-03-12T14:39:41.737Z,100506.91
2023-03-12T14:42:10.058Z,100508.47
2023-03-12T14:44:39.447Z,100507.19
2023-03-12T14:47:10.229Z,100501.41
2023-03-12T14:49:45.903Z,100505.59
2023-03-12T14:52:14.839Z,100501.22
2023-03-12T14:54:53.998Z,100510.63
2023-03-12T14:57:25.095Z,100508.03
2023-03-12T14:59:57.068Z,100507.81
2023-03-12T15:02:25.277Z,100509.62
2023-03-12T15:04:55.583Z,100508.84
2023-03-12T15:07:31.521Z,100505.03
2023-03-12T15:09:59.012Z,100513.31
2023-03-12T15:12:29.785Z,100520.12
2023-03-12T15:15:03.065Z,100519.91
2023-03-12T15:17:31.850Z,100524.75
2023-03-12T15:19:59.450Z,100526.75
2023-03-12T15:22:27.897Z,100521.16
2023-03-12T15:24:55.379Z,100527.03
2023-03-12T15:27:28.704Z,100516.88
2023-03-12T15:29:58.076Z,100524.50
2023-03-12T15:32:26.356Z,100525.97
2023-03-12T15:34:56.481Z,100522.38
2023-03-12T15:37:34.917Z,100526.81
2023-03-12T15:40:06.614Z,100533.13
2023-03-12T15:42:46.923Z,100529.13
2023-03-12T15:45:26.353Z,100531.72
2023-03-12T15:47:54.334Z,100534.19
2023-03-12T15:50:34.338Z,100541.81
2023-03-12T15:53:26.515Z,100538.66
2023-03-12T15:55:59.117Z,100536.66
2023-03-12T15:58:34.622Z,100541.22
2023-03-12T16:01:13.321Z,100543.31
2023-03-12T16:03:42.523Z,100532.00
2023-03-12T16:06:15.118Z,100541.06
2023-03-12T16:08:51.110Z,100538.94
2023-03-12T16:11:24.155Z,100536.75
2023-03-12T16:13:54.897Z,100540.72
2023-03-12T16:16:22.019Z,100544.09
2023-03-12T16:18:49.166Z,100542.88
2023-03-12T16:21:16.558Z,100543.31
2023-03-12T16:23:43.631Z,100550.62
2023-03-12T16:26:11.958Z,100542.88
2023-03-12T16:28:39.780Z,100557.09
2023-03-12T16:31:16.403Z,100558.44
2023-03-12T16:33:44.864Z,100558.31
2023-03-12T16:36:14.084Z,100554.44
2023-03-12T16:38:42.112Z,100559.22
2023-03-12T16:41:28.771Z,100557.16
2023-03-12T16:43:56.863Z,100562.97
2023-03-12T16:46:27.304Z,100566.84
2023-03-12T16:48:54.557Z,100562.84
2023-03-12T16:51:22.130Z,100568.34
2023-03-12T16:54:05.312Z,100569.59
2023-03-12T16:56:35.058Z,100572.56
2023-03-12T16:59:06.194Z,100578.19
2023-03-12T17:01:33.374Z,100577.62
2023-03-12T17:04:00.671Z,100587.47
2023-03-12T17:06:28.140Z,100587.69
2023-03-12T17:08:55.372Z,100589.63
2023-03-12T17:11:25.325Z,100591.56
2023-03-12T17:13:58.700Z,100596.22
2023-03-12T17:16:25.973Z,100610.16
2023-03-12T17:18:53.739Z,100608.78
2023-03-12T17:21:21.659Z,100608.19
2023-03-12T17:23:50.457Z,100611.09
2023-03-12T17:26:18.639Z,100611.78
2023-03-12T17:28:45.737Z,100618.09
2023-03-12T17:31:12.965Z,100615.00
2023-03-12T17:33:40.423Z,100611.53
2023-03-12T17:36:09.298Z,100616.00
2023-03-12T17:38:36.658Z,100613.66
2023-03-12T17:41:09.364Z,100606.03
2023-03-12T17:43:41.827Z,100608.59
2023-03-12T17:46:09.818Z,100595.50
2023-03-12T17:48:37.016Z,100605.16
2023-03-12T17:51:09.971Z,100613.19
2023-03-12T17:53:39.541Z,100606.59
2023-03-12T17:56:07.443Z,100604.00
2023-03-12T17:58:34.540Z,100609.09
2023-03-12T18:01:02.058Z,100618.53
2023-03-12T18:03:29.693Z,100616.19
2023-03-12T18:05:56.874Z,100604.56
2023-03-12T18:08:23.946Z,100609.00
2023-03-12T18:10:51.349Z,100615.09
2023-03-12T18:13:18.517Z,100618.53
2023-03-12T18:15:54.296Z,100608.41
2023-03-12T18:18:22.468Z,100613.75
2023-03-12T18:20:49.973Z,100613.84
2023-03-12T18:23:17.508Z,100608.81
2023-03-12T18:25:46.084Z,100609.84
2023-03-12T18:28:14.131Z,100620.28
2023-03-12T18:30:41.296Z,100628.66
2023-03-12T18:33:08.698Z,100635.44
2023-03-12T18:35:35.864Z,100633.75
2023-03-12T18:38:02.998Z,100634.78
2023-03-12T18:40:32.787Z,100636.44
2023-03-12T18:43:00.435Z,100632.91
2023-03-12T18:45:27.972Z,100634.06
2023-03-12T18:47:55.759Z,100643.59
2023-03-12T18:50:22.950Z,100643.81
2023-03-12T18:52:50.062Z,100640.75
2023-03-12T18:55:17.723Z,100646.00
2023-03-12T18:57:47.198Z,100649.56
2023-03-12T19:00:17.717Z,100644.53
2023-03-12T19:02:48.415Z,100649.84
2023-03-12T19:05:16.449Z,100656.06
2023-03-12T19:07:44.028Z,100649.25
2023-03-12T19:10:12.299Z,100653.53
2023-03-12T19:12:51.661Z,100649.50
2023-03-12T19:15:21.308Z,100658.13
2023-03-12T19:17:48.408Z,100648.62
2023-03-12T19:20:15.731Z,100649.53
2023-03-12T19:22:43.684Z,100648.53
2023-03-12T19:25:10.823Z,100639.84
2023-03-12T19:27:37.871Z,100637.28
2023-03-12T19:30:05.858Z,100633.81
2023-03-12T19:32:42.335Z,100640.91
2023-03-12T19:35:12.201Z,100646.22
2023-03-12T19:37:39.302Z,100651.44
2023-03-12T19:40:07.131Z,100653.00
2023-03-12T19:42:34.521Z,100659.81
2023-03-12T19:45:01.632Z,100663.28
2023-03-12T19:47:28.919Z,100674.28
2023-03-12T19:49:56.310Z,100678.41
2023-03-12T19:52:23.622Z,100683.38
2023-03-12T19:55:03.418Z,100689.53
2023-03-12T19:57:32.682Z,100683.59
2023-03-12T19:59:59.841Z,100695.75
2023-03-12T20:02:27.165Z,100694.00
2023-03-12T20:04:55.438Z,100687.19
2023-03-12T20:07:22.800Z,100691.56
2023-03-12T20:09:50.196Z,100693.22
2023-03-12T20:12:17.567Z,100692.44
2023-03-12T20:14:44.887Z,100692.44
2023-03-12T20:17:12.318Z,100689.78
2023-03-12T20:19:39.914Z,100687.28
2023-03-12T20:22:07.516Z,100689.94
2023-03-12T20:24:35.279Z,100678.81
2023-03-12T20:27:03.856Z,100672.09
2023-03-12T20:29:30.971Z,100674.63
2023-03-12T20:31:58.168Z,100680.66
2023-03-12T20:34:25.874Z,100691.84
2023-03-12T20:36:52.966Z,100697.06
2023-03-12T20:39:20.130Z,100703.94
2023-03-12T20:41:49.132Z,100693.56
2023-03-12T20:44:16.987Z,100692.91
2023-03-12T20:46:44.455Z,100686.72
2023-03-12T20:49:11.941Z,100672.81
2023-03-12T20:51:40.562Z,100678.78
2023-03-12T20:54:07.668Z,100689.09
2023-03-12T20:56:35.574Z,100696.78
2023-03-12T20:59:02.712Z,100707.75
2023-03-12T21:01:29.940Z,100705.09
2023-03-12T21:03:57.872Z,100714.69
2023-03-12T21:06:25.264Z,100722.66
2023-03-12T21:08:52.333Z,100723.66
2023-03-12T21:11:19.749Z,100714.50
2023-03-12T21:13:47.009Z,100716.25
2023-03-12T21:16:14.248Z,100710.28
2023-03-12T21:18:41.813Z,100704.22
2023-03-12T21:21:09.289Z,100712.66
2023-03-12T21:23:36.857Z,100698.94
2023-03-12T21:26:09.070Z,100701.25
2023-03-12T21:28:36.611Z,100707.03
2023-03-12T21:31:05.913Z,100692.50
2023-03-12T21:33:33.429Z,100710.12
2023-03-12T21:36:04.079Z,100703.09
2023-03-12T21:38:31.681Z,100701.09
2023-03-12T21:41:04.953Z,100698.94
2023-03-12T21:43:32.415Z,100701.41
2023-03-12T21:46:07.106Z,100693.78
2023-03-12T21:48:35.327Z,100700.63
2023-03-12T21:51:07.177Z,100697.97
2023-03-12T21:53:35.633Z,100705.66
2023-03-12T21:56:03.874Z,100708.84
2023-03-12T21:58:31.917Z,100698.34
2023-03-12T22:01:11.369Z,100695.22
2023-03-12T22:03:39.751Z,100702.66
2023-03-12T22:06:07.506Z,100707.94
2023-03-12T22:08:35.312Z,100699.38
2023-03-12T22:11:03.319Z,100690.91
2023-03-12T22:13:30.654Z,100701.94
2023-03-12T22:16:03.354Z,100692.41
2023-03-12T22:18:30.866Z,100694.94
2023-03-12T22:21:01.180Z,100691.50
2023-03-12T22:23:28.651Z,100687.13
2023-03-12T22:25:56.515Z,100683.63
2023-03-12T22:28:25.629Z,100688.63
2023-03-12T22:31:00.941Z,100690.19
2023-03-12T22:33:29.054Z,100689.94
2023-03-12T22:35:56.792Z,100686.28
2023-03-12T22:38:24.211Z,100683.41
2023-03-12T22:40:53.166Z,100682.22
2023-03-12T22:43:22.218Z,100680.22
2023-03-12T22:45:53.782Z,100677.00
2023-03-12T22:48:21.207Z,100676.72
2023-03-12T22:50:54.761Z,100682.16
2023-03-12T22:53:22.306Z,100674.81
2023-03-12T22:56:03.476Z,100678.00
2023-03-12T22:58:31.088Z,100677.37
2023-03-12T23:01:05.923Z,100678.91
2023-03-12T23:03:34.807Z,100683.09
2023-03-12T23:06:02.597Z,100684.19
2023-03-12T23:08:30.451Z,100691.84
2023-03-12T23:11:00.045Z,100690.22
2023-03-12T23:13:28.772Z,100697.91
2023-03-12T23:16:01.459Z,100705.91
2023-03-12T23:18:29.163Z,100704.31
2023-03-12T23:21:05.318Z,100708.19
2023-03-12T23:23:33.158Z,100718.31
2023-03-12T23:26:01.354Z,100729.72
2023-03-12T23:28:29.505Z,100722.97
2023-03-12T23:31:02.075Z,100731.87
2023-03-12T23:33:30.218Z,100739.16
2023-03-12T23:36:00.388Z,100742.84
2023-03-12T23:38:28.876Z,100734.00
2023-03-12T23:41:19.932Z,100734.34
2023-03-12T23:43:47.911Z,100747.12
2023-03-12T23:46:17.125Z,100742.34
2023-03-12T23:48:45.677Z,100749.37
2023-03-12T23:51:15.787Z,100742.66
2023-03-12T23:53:45.365Z,100750.84
2023-03-12T23:56:18.128Z,100748.00
2023-03-12T23:58:45.888Z,100751.19
